sensor_id;sensor_type;location;lat;lon;timestamp;pressure;altitude;pressure_sealevel;temperature;humidity
22572;BME280;11452;53.368;14.658;2024-01-11T00:05:01;102442.61;;;0.13;100.00
22572;BME280;11452;53.368;14.658;2024-01-11T00:10:08;102440.84;;;0.12;100.00
22572;BME280;11452;53.368;14.658;2024-01-11T00:15:13;102450.49;;;0.13;100.00
22572;BME280;11452;53.368;14.658;2024-01-11T00:20:19;102455.80;;;0.16;100.00
22572;BME280;11452;53.368;14.658;2024-01-11T00:25:25;102448.43;;;0.23;100.00
22572;BME280;11452;53.368;14.658;2024-01-11T00:30:31;102442.77;;;0.25;100.00
22572;BME280;11452;53.368;14.658;2024-01-11T00:35:36;102428.34;;;0.28;100.00
22572;BME280;11452;53.368;14.658;2024-01-11T00:40:42;102415.23;;;0.30;100.00
22572;BME280;11452;53.368;14.658;2024-01-11T00:45:48;102420.13;;;0.35;100.00
22572;BME280;11452;53.368;14.658;2024-01-11T00:50:54;102403.92;;;0.39;100.00
22572;BME280;11452;53.368;14.658;2024-01-11T00:56:03;102403.52;;;0.41;100.00
22572;BME280;11452;53.368;14.658;2024-01-11T01:01:12;102400.05;;;0.43;100.00
22572;BME280;11452;53.368;14.658;2024-01-11T01:06:18;102406.09;;;0.38;100.00
22572;BME280;11452;53.368;14.658;2024-01-11T01:11:24;102397.78;;;0.38;100.00
22572;BME280;11452;53.368;14.658;2024-01-11T01:16:30;102397.36;;;0.37;100.00
22572;BME280;11452;53.368;14.658;2024-01-11T01:21:35;102390.31;;;0.34;100.00
22572;BME280;11452;53.368;14.658;2024-01-11T01:26:41;102416.20;;;0.37;100.00
22572;BME280;11452;53.368;14.658;2024-01-11T01:31:47;102417.52;;;0.40;100.00
22572;BME280;11452;53.368;14.658;2024-01-11T01:36:53;102416.66;;;0.41;100.00
22572;BME280;11452;53.368;14.658;2024-01-11T01:41:58;102423.28;;;0.44;100.00
22572;BME280;11452;53.368;14.658;2024-01-11T01:47:05;102427.23;;;0.44;100.00
22572;BME280;11452;53.368;14.658;2024-01-11T01:52:11;102430.73;;;0.44;100.00
22572;BME280;11452;53.368;14.658;2024-01-11T01:57:19;102419.81;;;0.46;100.00
22572;BME280;11452;53.368;14.658;2024-01-11T02:02:26;102402.30;;;0.48;100.00
22572;BME280;11452;53.368;14.658;2024-01-11T02:07:33;102388.30;;;0.49;100.00
22572;BME280;11452;53.368;14.658;2024-01-11T02:12:39;102403.69;;;0.53;100.00
22572;BME280;11452;53.368;14.658;2024-01-11T02:17:46;102428.23;;;0.53;100.00
22572;BME280;11452;53.368;14.658;2024-01-11T02:22:55;102415.02;;;0.49;100.00
22572;BME280;11452;53.368;14.658;2024-01-11T02:28:01;102406.33;;;0.54;100.00
22572;BME280;11452;53.368;14.658;2024-01-11T02:33:07;102410.27;;;0.56;100.00
22572;BME280;11452;53.368;14.658;2024-01-11T02:38:13;102394.09;;;0.59;100.00
22572;BME280;11452;53.368;14.658;2024-01-11T02:43:19;102385.38;;;0.63;100.00
22572;BME280;11452;53.368;14.658;2024-01-11T02:48:29;102382.33;;;0.65;100.00
22572;BME280;11452;53.368;14.658;2024-01-11T02:53:35;102383.23;;;0.67;100.00
22572;BME280;11452;53.368;14.658;2024-01-11T02:58:41;102402.13;;;0.70;100.00
22572;BME280;11452;53.368;14.658;2024-01-11T03:03:46;102378.47;;;0.75;100.00
22572;BME280;11452;53.368;14.658;2024-01-11T03:08:54;102369.71;;;0.76;100.00
22572;BME280;11452;53.368;14.658;2024-01-11T03:13:59;102384.20;;;0.77;100.00
22572;BME280;11452;53.368;14.658;2024-01-11T03:19:07;102396.95;;;0.79;100.00
22572;BME280;11452;53.368;14.658;2024-01-11T03:24:14;102391.22;;;0.77;100.00
22572;BME280;11452;53.368;14.658;2024-01-11T03:29:19;102377.62;;;0.77;100.00
22572;BME280;11452;53.368;14.658;2024-01-11T03:34:25;102361.86;;;0.79;100.00
22572;BME280;11452;53.368;14.658;2024-01-11T03:39:32;102364.48;;;0.79;100.00
22572;BME280;11452;53.368;14.658;2024-01-11T03:44:38;102353.98;;;0.80;100.00
22572;BME280;11452;53.368;14.658;2024-01-11T03:49:44;102381.20;;;0.82;100.00
22572;BME280;11452;53.368;14.658;2024-01-11T03:54:50;102359.31;;;0.86;100.00
22572;BME280;11452;53.368;14.658;2024-01-11T03:59:56;102364.12;;;0.85;100.00
22572;BME280;11452;53.368;14.658;2024-01-11T04:05:04;102338.67;;;0.84;100.00
22572;BME280;11452;53.368;14.658;2024-01-11T04:10:10;102357.55;;;0.85;100.00
22572;BME280;11452;53.368;14.658;2024-01-11T04:15:16;102355.81;;;0.87;100.00
22572;BME280;11452;53.368;14.658;2024-01-11T04:20:22;102339.18;;;0.90;100.00
22572;BME280;11452;53.368;14.658;2024-01-11T04:25:29;102341.36;;;0.89;100.00
22572;BME280;11452;53.368;14.658;2024-01-11T04:30:34;102327.77;;;0.89;100.00
22572;BME280;11452;53.368;14.658;2024-01-11T04:35:41;102319.02;;;0.92;100.00
22572;BME280;11452;53.368;14.658;2024-01-11T04:40:47;102305.41;;;0.91;100.00
22572;BME280;11452;53.368;14.658;2024-01-11T04:45:52;102304.95;;;0.88;100.00
22572;BME280;11452;53.368;14.658;2024-01-11T04:50:58;102328.60;;;0.85;100.00
22572;BME280;11452;53.368;14.658;2024-01-11T04:56:04;102301.85;;;0.86;100.00
22572;BME280;11452;53.368;14.658;2024-01-11T05:01:15;102328.63;;;0.88;100.00
22572;BME280;11452;53.368;14.658;2024-01-11T05:06:22;102324.22;;;0.86;100.00
22572;BME280;11452;53.368;14.658;2024-01-11T05:11:29;102327.73;;;0.86;100.00
22572;BME280;11452;53.368;14.658;2024-01-11T05:16:34;102310.64;;;0.88;100.00
22572;BME280;11452;53.368;14.658;2024-01-11T05:21:40;102295.72;;;0.87;100.00
22572;BME280;11452;53.368;14.658;2024-01-11T05:26:46;102287.78;;;0.82;100.00
22572;BME280;11452;53.368;14.658;2024-01-11T05:31:52;102265.86;;;0.83;100.00
22572;BME280;11452;53.368;14.658;2024-01-11T05:36:58;102266.74;;;0.84;100.00
22572;BME280;11452;53.368;14.658;2024-01-11T05:42:05;102254.48;;;0.86;100.00
22572;BME280;11452;53.368;14.658;2024-01-11T05:47:11;102260.64;;;0.88;100.00
22572;BME280;11452;53.368;14.658;2024-01-11T05:52:17;102274.69;;;0.88;100.00
22572;BME280;11452;53.368;14.658;2024-01-11T05:57:25;102253.63;;;0.88;100.00
22572;BME280;11452;53.368;14.658;2024-01-11T06:02:31;102240.04;;;0.89;100.00
22572;BME280;11452;53.368;14.658;2024-01-11T06:07:37;102228.60;;;0.85;100.00
22572;BME280;11452;53.368;14.658;2024-01-11T06:12:43;102230.35;;;0.85;100.00
22572;BME280;11452;53.368;14.658;2024-01-11T06:17:48;102235.18;;;0.85;100.00
22572;BME280;11452;53.368;14.658;2024-01-11T06:22:54;102248.78;;;0.86;100.00
22572;BME280;11452;53.368;14.658;2024-01-11T06:28:02;102237.83;;;0.87;100.00
22572;BME280;11452;53.368;14.658;2024-01-11T06:33:08;102248.37;;;0.88;100.00
22572;BME280;11452;53.368;14.658;2024-01-11T06:38:14;102258.41;;;0.84;100.00
22572;BME280;11452;53.368;14.658;2024-01-11T06:43:20;102266.73;;;0.82;100.00
22572;BME280;11452;53.368;14.658;2024-01-11T06:48:26;102251.38;;;0.82;100.00
22572;BME280;11452;53.368;14.658;2024-01-11T06:53:32;102255.80;;;0.86;100.00
22572;BME280;11452;53.368;14.658;2024-01-11T06:58:38;102255.77;;;0.83;100.00
22572;BME280;11452;53.368;14.658;2024-01-11T07:03:44;102257.53;;;0.84;100.00
22572;BME280;11452;53.368;14.658;2024-01-11T07:08:50;102258.41;;;0.84;100.00
22572;BME280;11452;53.368;14.658;2024-01-11T07:13:56;102249.25;;;0.89;100.00
22572;BME280;11452;53.368;14.658;2024-01-11T07:19:02;102262.83;;;0.87;100.00
22572;BME280;11452;53.368;14.658;2024-01-11T07:24:08;102261.06;;;0.86;100.00
22572;BME280;11452;53.368;14.658;2024-01-11T07:29:14;102262.44;;;0.92;100.00
22572;BME280;11452;53.368;14.658;2024-01-11T07:34:20;102243.58;;;0.95;100.00
22572;BME280;11452;53.368;14.658;2024-01-11T07:39:26;102247.11;;;0.97;100.00
22572;BME280;11452;53.368;14.658;2024-01-11T07:44:32;102220.34;;;0.98;100.00
22572;BME280;11452;53.368;14.658;2024-01-11T07:49:38;102227.85;;;1.03;100.00
22572;BME280;11452;53.368;14.658;2024-01-11T07:54:44;102224.80;;;1.05;100.00
22572;BME280;11452;53.368;14.658;2024-01-11T07:59:50;102234.45;;;1.04;100.00
22572;BME280;11452;53.368;14.658;2024-01-11T08:04:56;102239.66;;;0.98;100.00
22572;BME280;11452;53.368;14.658;2024-01-11T08:10:03;102251.08;;;1.00;100.00
22572;BME280;11452;53.368;14.658;2024-01-11T08:15:11;102246.73;;;1.04;100.00
22572;BME280;11452;53.368;14.658;2024-01-11T08:20:17;102226.56;;;1.06;100.00
22572;BME280;11452;53.368;14.658;2024-01-11T08:25:24;102215.17;;;1.12;100.00
22572;BME280;11452;53.368;14.658;2024-01-11T08:30:30;102209.92;;;1.13;100.00
22572;BME280;11452;53.368;14.658;2024-01-11T08:35:35;102237.15;;;1.17;100.00
22572;BME280;11452;53.368;14.658;2024-01-11T08:40:43;102239.81;;;1.20;100.00
22572;BME280;11452;53.368;14.658;2024-01-11T08:45:49;102232.80;;;1.22;100.00
22572;BME280;11452;53.368;14.658;2024-01-11T08:50:54;102246.44;;;1.26;100.00
22572;BME280;11452;53.368;14.658;2024-01-11T08:56:00;102251.26;;;1.25;100.00
22572;BME280;11452;53.368;14.658;2024-01-11T09:01:06;102252.18;;;1.30;100.00
22572;BME280;11452;53.368;14.658;2024-01-11T09:06:14;102264.88;;;1.30;100.00
22572;BME280;11452;53.368;14.658;2024-01-11T09:11:20;102272.37;;;1.29;100.00
22572;BME280;11452;53.368;14.658;2024-01-11T09:16:26;102264.84;;;1.21;100.00
22572;BME280;11452;53.368;14.658;2024-01-11T09:21:32;102265.69;;;1.19;100.00
22572;BME280;11452;53.368;14.658;2024-01-11T09:26:38;102270.13;;;1.24;100.00
22572;BME280;11452;53.368;14.658;2024-01-11T09:31:44;102271.05;;;1.34;100.00
22572;BME280;11452;53.368;14.658;2024-01-11T09:36:50;102269.31;;;1.36;100.00
22572;BME280;11452;53.368;14.658;2024-01-11T09:42:08;102259.73;;;1.46;100.00
22572;BME280;11452;53.368;14.658;2024-01-11T09:47:10;102250.95;;;1.51;100.00
22572;BME280;11452;53.368;14.658;2024-01-11T09:52:20;102239.16;;;1.59;100.00
22572;BME280;11452;53.368;14.658;2024-01-11T09:57:32;102238.77;;;1.73;100.00
22572;BME280;11452;53.368;14.658;2024-01-11T10:02:38;102234.02;;;1.94;100.00
22572;BME280;11452;53.368;14.658;2024-01-11T10:07:45;102229.22;;;2.07;100.00
22572;BME280;11452;53.368;14.658;2024-01-11T10:12:53;102245.00;;;1.92;100.00
22572;BME280;11452;53.368;14.658;2024-01-11T10:18:00;102234.84;;;1.78;100.00
22572;BME280;11452;53.368;14.658;2024-01-11T10:23:07;102234.79;;;1.68;100.00
22572;BME280;11452;53.368;14.658;2024-01-11T10:28:13;102245.36;;;1.67;100.00
22572;BME280;11452;53.368;14.658;2024-01-11T10:33:21;102239.20;;;1.72;100.00
22572;BME280;11452;53.368;14.658;2024-01-11T10:38:36;102255.45;;;1.70;100.00
22572;BME280;11452;53.368;14.658;2024-01-11T10:43:37;102246.69;;;1.74;100.00
22572;BME280;11452;53.368;14.658;2024-01-11T10:48:44;102229.15;;;1.86;100.00
22572;BME280;11452;53.368;14.658;2024-01-11T10:53:53;102240.59;;;1.89;100.00
22572;BME280;11452;53.368;14.658;2024-01-11T10:59:02;102228.77;;;1.98;100.00
22572;BME280;11452;53.368;14.658;2024-01-11T11:04:10;102230.10;;;2.00;100.00
22572;BME280;11452;53.368;14.658;2024-01-11T11:09:17;102222.61;;;1.96;100.00
22572;BME280;11452;53.368;14.658;2024-01-11T11:14:24;102211.20;;;1.97;100.00
22572;BME280;11452;53.368;14.658;2024-01-11T11:19:31;102211.64;;;2.06;100.00
22572;BME280;11452;53.368;14.658;2024-01-11T11:24:37;102203.31;;;2.13;100.00
22572;BME280;11452;53.368;14.658;2024-01-11T11:29:46;102199.83;;;2.21;100.00
22572;BME280;11452;53.368;14.658;2024-01-11T11:34:52;102205.55;;;2.30;100.00
22572;BME280;11452;53.368;14.658;2024-01-11T11:39:58;102194.53;;;2.15;100.00
22572;BME280;11452;53.368;14.658;2024-01-11T11:45:07;102196.27;;;2.10;100.00
22572;BME280;11452;53.368;14.658;2024-01-11T11:50:15;102194.08;;;2.11;100.00
22572;BME280;11452;53.368;14.658;2024-01-11T11:55:23;102173.88;;;2.18;100.00
22572;BME280;11452;53.368;14.658;2024-01-11T12:00:30;102171.24;;;2.16;100.00
22572;BME280;11452;53.368;14.658;2024-01-11T12:05:38;102153.65;;;2.12;100.00
22572;BME280;11452;53.368;14.658;2024-01-11T12:10:45;102161.12;;;2.14;100.00
22572;BME280;11452;53.368;14.658;2024-01-11T12:15:51;102169.48;;;2.27;100.00
22572;BME280;11452;53.368;14.658;2024-01-11T12:20:57;102151.48;;;2.36;100.00
22572;BME280;11452;53.368;14.658;2024-01-11T12:26:05;102151.05;;;2.38;100.00
22572;BME280;11452;53.368;14.658;2024-01-11T12:31:12;102137.83;;;2.44;100.00
22572;BME280;11452;53.368;14.658;2024-01-11T12:36:19;102124.20;;;2.49;100.00
22572;BME280;11452;53.368;14.658;2024-01-11T12:41:26;102121.13;;;2.47;100.00
22572;BME280;11452;53.368;14.658;2024-01-11T12:46:32;102112.33;;;2.48;100.00
22572;BME280;11452;53.368;14.658;2024-01-11T12:51:38;102134.31;;;2.47;100.00
22572;BME280;11452;53.368;14.658;2024-01-11T12:56:44;102126.41;;;2.53;100.00
22572;BME280;11452;53.368;14.658;2024-01-11T13:01:50;102118.94;;;2.57;100.00
22572;BME280;11452;53.368;14.658;2024-01-11T13:06:58;102121.11;;;2.62;100.00
22572;BME280;11452;53.368;14.658;2024-01-11T13:12:05;102117.59;;;2.61;100.00
22572;BME280;11452;53.368;14.658;2024-01-11T13:17:12;102118.94;;;2.57;100.00
22572;BME280;11452;53.368;14.658;2024-01-11T13:22:17;102118.94;;;2.51;100.00
22572;BME280;11452;53.368;14.658;2024-01-11T13:27:24;102123.33;;;2.44;100.00
22572;BME280;11452;53.368;14.658;2024-01-11T13:32:30;102131.27;;;2.41;100.00
22572;BME280;11452;53.368;14.658;2024-01-11T13:37:36;102132.58;;;2.36;100.00
22572;BME280;11452;53.368;14.658;2024-01-11T13:42:41;102144.44;;;2.35;100.00
22572;BME280;11452;53.368;14.658;2024-01-11T13:47:48;102123.34;;;2.35;100.00
22572;BME280;11452;53.368;14.658;2024-01-11T13:52:54;102132.13;;;2.31;100.00
22572;BME280;11452;53.368;14.658;2024-01-11T13:58:00;102116.73;;;2.27;100.00
22572;BME280;11452;53.368;14.658;2024-01-11T14:03:06;102134.33;;;2.30;100.00
22572;BME280;11452;53.368;14.658;2024-01-11T14:08:13;102134.75;;;2.26;100.00
22572;BME280;11452;53.368;14.658;2024-01-11T14:13:19;102141.35;;;2.28;100.00
22572;BME280;11452;53.368;14.658;2024-01-11T14:18:25;102131.68;;;2.27;100.00
22572;BME280;11452;53.368;14.658;2024-01-11T14:23:31;102104.86;;;2.27;100.00
22572;BME280;11452;53.368;14.658;2024-01-11T14:28:36;102115.42;;;2.30;100.00
22572;BME280;11452;53.368;14.658;2024-01-11T14:33:44;102135.64;;;2.31;100.00
22572;BME280;11452;53.368;14.658;2024-01-11T14:38:50;102129.94;;;2.35;100.00
22572;BME280;11452;53.368;14.658;2024-01-11T14:43:55;102119.39;;;2.36;100.00
22572;BME280;11452;53.368;14.658;2024-01-11T14:49:01;102115.86;;;2.31;100.00
22572;BME280;11452;53.368;14.658;2024-01-11T14:54:09;102117.63;;;2.37;100.00
22572;BME280;11452;53.368;14.658;2024-01-11T14:59:15;102123.34;;;2.33;100.00
22572;BME280;11452;53.368;14.658;2024-01-11T15:04:20;102125.53;;;2.32;100.00
22572;BME280;11452;53.368;14.658;2024-01-11T15:09:26;102139.16;;;2.33;100.00
22572;BME280;11452;53.368;14.658;2024-01-11T15:14:32;102158.07;;;2.33;100.00
22572;BME280;11452;53.368;14.658;2024-01-11T15:19:38;102155.86;;;2.28;100.00
22572;BME280;11452;53.368;14.658;2024-01-11T15:24:44;102172.13;;;2.30;100.00
22572;BME280;11452;53.368;14.658;2024-01-11T15:29:51;102177.41;;;2.32;100.00
22572;BME280;11452;53.368;14.658;2024-01-11T15:34:57;102183.13;;;2.33;100.00
22572;BME280;11452;53.368;14.658;2024-01-11T15:40:03;102186.20;;;2.34;100.00
22572;BME280;11452;53.368;14.658;2024-01-11T15:45:09;102195.43;;;2.43;100.00
22572;BME280;11452;53.368;14.658;2024-01-11T15:50:15;102206.86;;;2.42;100.00
22572;BME280;11452;53.368;14.658;2024-01-11T15:55:21;102210.38;;;2.42;100.00
22572;BME280;11452;53.368;14.658;2024-01-11T16:00:27;102213.92;;;2.51;100.00
22572;BME280;11452;53.368;14.658;2024-01-11T16:05:35;102216.57;;;2.55;100.00
22572;BME280;11452;53.368;14.658;2024-01-11T16:10:42;102207.78;;;2.55;100.00
22572;BME280;11452;53.368;14.658;2024-01-11T16:15:48;102207.31;;;2.61;100.00
22572;BME280;11452;53.368;14.658;2024-01-11T16:20:55;102207.76;;;2.64;100.00
22572;BME280;11452;53.368;14.658;2024-01-11T16:26:01;102203.36;;;2.63;100.00
22572;BME280;11452;53.368;14.658;2024-01-11T16:31:07;102208.64;;;2.64;100.00
22572;BME280;11452;53.368;14.658;2024-01-11T16:36:13;102206.87;;;2.63;100.00
22572;BME280;11452;53.368;14.658;2024-01-11T16:41:21;102213.03;;;2.64;100.00
22572;BME280;11452;53.368;14.658;2024-01-11T16:46:29;102225.80;;;2.67;100.00
22572;BME280;11452;53.368;14.658;2024-01-11T16:51:48;102235.49;;;2.73;100.00
22572;BME280;11452;53.368;14.658;2024-01-11T16:56:51;102250.01;;;2.73;100.00
22572;BME280;11452;53.368;14.658;2024-01-11T17:01:57;102250.45;;;2.72;100.00
22572;BME280;11452;53.368;14.658;2024-01-11T17:07:03;102252.64;;;2.71;100.00
22572;BME280;11452;53.368;14.658;2024-01-11T17:12:09;102242.97;;;2.75;100.00
22572;BME280;11452;53.368;14.658;2024-01-11T17:17:14;102240.31;;;2.79;100.00
22572;BME280;11452;53.368;14.658;2024-01-11T17:22:20;102243.42;;;2.77;100.00
22572;BME280;11452;53.368;14.658;2024-01-11T17:27:26;102246.06;;;2.76;100.00
22572;BME280;11452;53.368;14.658;2024-01-11T17:32:34;102245.16;;;2.82;100.00
22572;BME280;11452;53.368;14.658;2024-01-11T17:37:39;102238.55;;;2.83;100.00
22572;BME280;11452;53.368;14.658;2024-01-11T17:42:46;102240.31;;;2.84;100.00
22572;BME280;11452;53.368;14.658;2024-01-11T17:47:52;102236.36;;;2.83;100.00
22572;BME280;11452;53.368;14.658;2024-01-11T17:53:01;102229.31;;;2.83;100.00
22572;BME280;11452;53.368;14.658;2024-01-11T17:58:07;102247.36;;;2.85;100.00
22572;BME280;11452;53.368;14.658;2024-01-11T18:03:13;102253.97;;;2.88;100.00
22572;BME280;11452;53.368;14.658;2024-01-11T18:08:20;102266.73;;;2.93;100.00
22572;BME280;11452;53.368;14.658;2024-01-11T18:13:26;102265.42;;;2.93;100.00
22572;BME280;11452;53.368;14.658;2024-01-11T18:18:33;102269.80;;;3.00;100.00
22572;BME280;11452;53.368;14.658;2024-01-11T18:23:40;102270.70;;;2.95;100.00
22572;BME280;11452;53.368;14.658;2024-01-11T18:28:47;102263.66;;;2.95;100.00
22572;BME280;11452;53.368;14.658;2024-01-11T18:33:54;102268.03;;;3.01;100.00
22572;BME280;11452;53.368;14.658;2024-01-11T18:39:01;102267.59;;;3.00;100.00
22572;BME280;11452;53.368;14.658;2024-01-11T18:44:08;102278.61;;;2.90;100.00
22572;BME280;11452;53.368;14.658;2024-01-11T18:49:14;102283.91;;;2.96;100.00
22572;BME280;11452;53.368;14.658;2024-01-11T18:54:22;102275.52;;;3.00;100.00
22572;BME280;11452;53.368;14.658;2024-01-11T18:59:28;102279.92;;;3.01;100.00
22572;BME280;11452;53.368;14.658;2024-01-11T19:04:35;102275.52;;;3.01;100.00
22572;BME280;11452;53.368;14.658;2024-01-11T19:09:41;102269.80;;;3.03;100.00
22572;BME280;11452;53.368;14.658;2024-01-11T19:14:50;102270.25;;;2.88;100.00
22572;BME280;11452;53.368;14.658;2024-01-11T19:19:56;102264.94;;;2.50;100.00
22572;BME280;11452;53.368;14.658;2024-01-11T19:25:04;102273.67;;;2.21;100.00
22572;BME280;11452;53.368;14.658;2024-01-11T19:30:11;102289.41;;;2.04;100.00
22572;BME280;11452;53.368;14.658;2024-01-11T19:35:17;102294.19;;;1.84;100.00
22572;BME280;11452;53.368;14.658;2024-01-11T19:40:23;102312.98;;;1.66;100.00
22572;BME280;11452;53.368;14.658;2024-01-11T19:45:30;102314.63;;;1.52;100.00
22572;BME280;11452;53.368;14.658;2024-01-11T19:50:36;102322.92;;;1.43;100.00
22572;BME280;11452;53.368;14.658;2024-01-11T19:55:42;102319.77;;;1.34;100.00
22572;BME280;11452;53.368;14.658;2024-01-11T20:00:48;102320.16;;;1.24;100.00
22572;BME280;11452;53.368;14.658;2024-01-11T20:05:59;102336.36;;;1.21;100.00
22572;BME280;11452;53.368;14.658;2024-01-11T20:11:06;102356.55;;;1.20;100.00
22572;BME280;11452;53.368;14.658;2024-01-11T20:16:12;102354.31;;;1.17;100.00
22572;BME280;11452;53.368;14.658;2024-01-11T20:21:17;102352.95;;;1.12;100.00
22572;BME280;11452;53.368;14.658;2024-01-11T20:26:23;102360.37;;;1.05;100.00
22572;BME280;11452;53.368;14.658;2024-01-11T20:31:31;102361.63;;;1.00;100.00
22572;BME280;11452;53.368;14.658;2024-01-11T20:36:37;102378.67;;;0.94;100.00
22572;BME280;11452;53.368;14.658;2024-01-11T20:41:44;102380.39;;;0.88;100.00
22572;BME280;11452;53.368;14.658;2024-01-11T20:46:50;102387.34;;;0.83;100.00
22572;BME280;11452;53.368;14.658;2024-01-11T20:52:01;102383.77;;;0.78;100.00
22572;BME280;11452;53.368;14.658;2024-01-11T20:57:07;102390.78;;;0.74;100.00
22572;BME280;11452;53.368;14.658;2024-01-11T21:02:13;102388.12;;;0.73;100.00
22572;BME280;11452;53.368;14.658;2024-01-11T21:07:19;102388.98;;;0.72;100.00
22572;BME280;11452;53.368;14.658;2024-01-11T21:12:24;102393.37;;;0.71;100.00
22572;BME280;11452;53.368;14.658;2024-01-11T21:17:31;102393.78;;;0.69;100.00
22572;BME280;11452;53.368;14.658;2024-01-11T21:22:36;102399.00;;;0.66;100.00
22572;BME280;11452;53.368;14.658;2024-01-11T21:27:42;102401.12;;;0.60;100.00
22572;BME280;11452;53.368;14.658;2024-01-11T21:32:50;102410.73;;;0.55;100.00
22572;BME280;11452;53.368;14.658;2024-01-11T21:37:55;102417.16;;;0.45;100.00
22572;BME280;11452;53.368;14.658;2024-01-11T21:43:02;102416.56;;;0.31;100.00
22572;BME280;11452;53.368;14.658;2024-01-11T21:48:10;102422.64;;;0.27;100.00
22572;BME280;11452;53.368;14.658;2024-01-11T21:53:16;102420.61;;;0.41;100.00
22572;BME280;11452;53.368;14.658;2024-01-11T21:58:22;102419.72;;;0.40;100.00
22572;BME280;11452;53.368;14.658;2024-01-11T22:03:30;102427.19;;;0.41;100.00
22572;BME280;11452;53.368;14.658;2024-01-11T22:08:41;102437.23;;;0.37;100.00
22572;BME280;11452;53.368;14.658;2024-01-11T22:13:47;102439.87;;;0.37;100.00
22572;BME280;11452;53.368;14.658;2024-01-11T22:18:53;102441.55;;;0.31;100.00
22572;BME280;11452;53.368;14.658;2024-01-11T22:24:00;102446.23;;;0.23;100.00
22572;BME280;11452;53.368;14.658;2024-01-11T22:29:06;102442.63;;;0.15;100.00
22572;BME280;11452;53.368;14.658;2024-01-11T22:34:12;102442.42;;;-0.01;100.00
22572;BME280;11452;53.368;14.658;2024-01-11T22:39:18;102436.00;;;-0.19;100.00
22572;BME280;11452;53.368;14.658;2024-01-11T22:44:24;102422.26;;;-0.29;100.00
22572;BME280;11452;53.368;14.658;2024-01-11T22:49:30;102421.65;;;-0.41;100.00
22572;BME280;11452;53.368;14.658;2024-01-11T22:54:36;102422.83;;;-0.49;100.00
22572;BME280;11452;53.368;14.658;2024-01-11T22:59:43;102428.77;;;-0.60;100.00
22572;BME280;11452;53.368;14.658;2024-01-11T23:04:49;102434.30;;;-0.68;100.00
22572;BME280;11452;53.368;14.658;2024-01-11T23:09:55;102430.63;;;-0.80;100.00
22572;BME280;11452;53.368;14.658;2024-01-11T23:15:02;102421.69;;;-0.89;100.00
22572;BME280;11452;53.368;14.658;2024-01-11T23:20:08;102422.42;;;-0.98;100.00
22572;BME280;11452;53.368;14.658;2024-01-11T23:25:15;102430.63;;;-1.03;100.00
22572;BME280;11452;53.368;14.658;2024-01-11T23:30:20;102431.84;;;-1.08;100.00
22572;BME280;11452;53.368;14.658;2024-01-11T23:35:26;102427.45;;;-1.09;100.00
22572;BME280;11452;53.368;14.658;2024-01-11T23:40:32;102426.47;;;-1.15;100.00
22572;BME280;11452;53.368;14.658;2024-01-11T23:45:38;102423.69;;;-1.23;100.00
22572;BME280;11452;53.368;14.658;2024-01-11T23:50:44;102425.40;;;-1.25;100.00
22572;BME280;11452;53.368;14.658;2024-01-11T23:55:50;102425.30;;;-1.29;100.00
